Time;durP1;ratioP1;P1;durP2;ratioP2;P2;SDS_P1;SDS_P2;PMS_P1;PMS_P2;Temp;Humidity;BMP_temperature;BMP_pressure;BME280_temperature;BME280_humidity;BME280_pressure;Samples;Min_cycle;Max_cycle;Signal;HPM_P1;HPM_P2
2023/03/05 00:01:14;;;;;;;60.20;26.80;;;;;;;3.72;100.00;99815.02;106639;1284;59076;-82
2023/03/05 00:03:40;;;;;;;63.30;25.80;;;;;;;3.73;100.00;99810.34;106931;1284;73414;-82
2023/03/05 00:06:06;;;;;;;64.20;25.20;;;;;;;3.75;100.00;99813.85;106662;1285;59086;-82
2023/03/05 00:08:32;;;;;;;57.60;24.60;;;;;;;3.73;100.00;99810.77;107004;1285;59077;-82
2023/03/05 00:10:59;;;;;;;61.50;25.30;;;;;;;3.75;100.00;99807.36;107008;1284;59033;-82
2023/03/05 00:13:25;;;;;;;56.70;23.70;;;;;;;3.76;100.00;99809.52;106838;1284;59114;-82
2023/03/05 00:15:51;;;;;;;63.40;24.20;;;;;;;3.76;100.00;99807.59;106964;1284;59055;-82
2023/03/05 00:18:16;;;;;;;59.40;25.20;;;;;;;3.78;100.00;99811.95;106960;1284;58985;-82
2023/03/05 00:20:42;;;;;;;60.00;23.70;;;;;;;3.79;100.00;99814.41;106676;1286;59087;-82
2023/03/05 00:23:07;;;;;;;59.80;23.50;;;;;;;3.79;100.00;99818.39;107019;1284;59053;-82
2023/03/05 00:25:36;;;;;;;61.60;23.20;;;;;;;3.77;100.00;99812.77;106828;1286;59105;-82
2023/03/05 00:28:03;;;;;;;55.40;23.60;;;;;;;3.71;100.00;99816.50;106952;1284;60320;-82
2023/03/05 00:30:30;;;;;;;57.20;24.20;;;;;;;3.63;100.00;99820.52;106604;1284;60655;-82
2023/03/05 00:32:56;;;;;;;61.80;24.70;;;;;;;3.54;100.00;99823.00;106968;1284;74426;-81
2023/03/05 00:35:22;;;;;;;58.80;24.10;;;;;;;3.44;100.00;99820.35;106981;1286;59115;-82
2023/03/05 00:37:47;;;;;;;63.80;25.20;;;;;;;3.36;100.00;99823.43;106644;1284;59123;-82
2023/03/05 00:40:13;;;;;;;56.50;23.60;;;;;;;3.26;100.00;99825.70;106822;1285;58925;-82
2023/03/05 00:42:38;;;;;;;67.50;26.00;;;;;;;3.17;100.00;99826.98;106964;1285;59863;-81
2023/03/05 00:45:06;;;;;;;62.30;25.60;;;;;;;3.08;100.00;99827.47;106694;1286;59067;-82
2023/03/05 00:47:32;;;;;;;65.50;25.70;;;;;;;3.00;100.00;99831.40;106973;1284;73344;-82
2023/03/05 00:49:57;;;;;;;68.80;26.20;;;;;;;2.94;100.00;99827.23;106810;1285;59078;-82
2023/03/05 00:52:23;;;;;;;69.40;27.30;;;;;;;2.88;100.00;99829.38;106656;1288;59194;-82
2023/03/05 00:54:48;;;;;;;67.30;26.10;;;;;;;2.86;100.00;99826.70;106996;1285;59007;-82
2023/03/05 00:57:14;;;;;;;63.00;25.80;;;;;;;2.85;100.00;99829.86;106984;1286;59432;-81
2023/03/05 00:59:39;;;;;;;66.20;26.70;;;;;;;2.87;100.00;99840.04;106924;1284;61098;-82
2023/03/05 01:02:05;;;;;;;72.50;27.30;;;;;;;2.88;100.00;99846.41;106974;1286;59085;-82
2023/03/05 01:04:30;;;;;;;64.00;26.60;;;;;;;2.91;100.00;99848.31;106984;1286;59047;-82
2023/03/05 01:06:56;;;;;;;65.00;26.80;;;;;;;2.91;100.00;99844.36;106978;1285;59145;-82
2023/03/05 01:09:24;;;;;;;71.20;26.50;;;;;;;2.93;100.00;99847.75;106974;1286;59120;-83
2023/03/05 01:11:50;;;;;;;61.40;25.70;;;;;;;2.94;100.00;99847.73;106914;1284;59743;-82
2023/03/05 01:14:16;;;;;;;66.00;27.30;;;;;;;2.94;100.00;99848.48;106946;1285;75446;-82
2023/03/05 01:16:42;;;;;;;68.50;27.70;;;;;;;2.94;100.00;99852.20;106955;1285;59041;-83
2023/03/05 01:19:08;;;;;;;76.40;28.40;;;;;;;2.93;100.00;99852.96;106906;1283;60061;-82
2023/03/05 01:21:35;;;;;;;73.60;27.10;;;;;;;2.90;100.00;99856.03;106634;1286;59041;-82
2023/03/05 01:24:00;;;;;;;72.70;27.40;;;;;;;2.86;100.00;99858.26;106954;1285;59075;-82
2023/03/05 01:26:26;;;;;;;72.90;29.10;;;;;;;2.82;100.00;99857.21;106934;1286;59039;-82
2023/03/05 01:28:52;;;;;;;72.90;28.10;;;;;;;2.77;100.00;99855.65;106947;1285;59101;-82
2023/03/05 01:31:17;;;;;;;77.50;28.60;;;;;;;2.71;100.00;99848.25;106924;1286;59108;-82
2023/03/05 01:33:43;;;;;;;75.80;28.70;;;;;;;2.66;100.00;99842.10;106988;1285;59003;-81
2023/03/05 01:36:13;;;;;;;74.70;27.40;;;;;;;2.60;100.00;99846.31;106958;1286;59089;-81
2023/03/05 01:38:40;;;;;;;74.80;27.90;;;;;;;2.54;100.00;99845.78;106595;1286;71691;-82
2023/03/05 01:41:06;;;;;;;68.60;27.40;;;;;;;2.47;100.00;99849.44;106916;1285;72509;-81
2023/03/05 01:43:32;;;;;;;67.70;27.20;;;;;;;2.39;100.00;99854.53;106937;1285;59028;-81
2023/03/05 01:46:16;;;;;;;70.80;27.30;;;;;;;2.33;100.00;99850.97;106963;1286;59354;-81
2023/03/05 01:48:46;;;;;;;74.30;28.20;;;;;;;2.26;100.00;99855.55;106607;1285;73772;-82
2023/03/05 01:51:12;;;;;;;72.90;27.30;;;;;;;2.18;100.00;99859.20;106649;1285;73370;-82
2023/03/05 01:53:38;;;;;;;68.30;27.10;;;;;;;2.11;100.00;99858.44;106915;1284;59903;-82
2023/03/05 01:56:04;;;;;;;70.60;26.70;;;;;;;2.04;100.00;99860.56;106792;1285;59153;-82
2023/03/05 01:58:30;;;;;;;74.50;27.80;;;;;;;1.97;100.00;99874.44;106904;1286;59039;-82
2023/03/05 02:00:57;;;;;;;73.90;26.00;;;;;;;1.89;100.00;99878.25;107000;1284;59090;-82
2023/03/05 02:03:23;;;;;;;71.30;27.30;;;;;;;1.80;100.00;99879.70;106968;1284;59113;-82
2023/03/05 02:05:49;;;;;;;67.60;27.30;;;;;;;1.74;100.00;99882.16;106924;1285;59284;-81
2023/03/05 02:08:18;;;;;;;73.00;26.60;;;;;;;1.68;100.00;99887.56;106942;1286;59779;-82
2023/03/05 02:10:47;;;;;;;73.40;26.50;;;;;;;1.65;100.00;99894.29;106965;1285;60342;-82
2023/03/05 02:13:15;;;;;;;68.70;25.70;;;;;;;1.62;100.00;99897.23;106937;1284;74178;-82
2023/03/05 02:15:41;;;;;;;71.00;26.60;;;;;;;1.58;100.00;99900.86;106662;1286;73398;-82
2023/03/05 02:18:08;;;;;;;64.80;24.50;;;;;;;1.54;100.00;99905.88;106599;1288;59073;-82
2023/03/05 02:21:06;;;;;;;67.70;26.50;;;;;;;1.51;100.00;99907.64;106925;1286;59026;-82
2023/03/05 02:23:37;;;;;;;62.50;25.40;;;;;;;1.46;100.00;99914.27;106268;1291;60164;-82
2023/03/05 02:26:06;;;;;;;67.70;26.40;;;;;;;1.41;100.00;99911.08;106242;1290;75500;-82
2023/03/05 02:28:49;;;;;;;66.70;26.80;;;;;;;1.39;100.00;99911.96;106242;1292;74348;-82
2023/03/05 02:31:16;;;;;;;;;;;;;;;1.36;100.00;99916.80;106285;1292;72345;-82
2023/03/05 02:33:43;;;;;;;68.80;26.50;;;;;;;1.31;100.00;99918.35;106276;1290;60864;-82
2023/03/05 02:36:10;;;;;;;72.30;25.70;;;;;;;1.29;100.00;99916.98;106234;1292;59149;-82
2023/03/05 02:38:37;;;;;;;62.20;24.40;;;;;;;1.25;100.00;99917.52;106283;1291;75555;-82
2023/03/05 02:41:02;;;;;;;71.10;25.60;;;;;;;1.20;100.00;99918.79;106280;1291;59437;-82
2023/03/05 02:43:28;;;;;;;62.70;24.30;;;;;;;1.17;100.00;99919.97;105965;1292;266158;-82
2023/03/05 02:45:53;;;;;;;65.10;23.80;;;;;;;1.16;100.00;99923.52;106133;1292;59293;-82
2023/03/05 02:48:19;;;;;;;62.70;24.10;;;;;;;1.20;100.00;99925.78;106165;1292;59206;-81
2023/03/05 02:50:46;;;;;;;57.20;22.00;;;;;;;1.22;100.00;99928.34;106261;1292;59163;-82
2023/03/05 02:53:11;;;;;;;57.50;22.40;;;;;;;1.22;100.00;99930.46;106150;1292;72435;-82
2023/03/05 02:55:37;;;;;;;59.50;22.00;;;;;;;1.22;100.00;99928.50;105981;1292;59135;-83
2023/03/05 02:58:02;;;;;;;56.20;20.70;;;;;;;1.22;100.00;99928.75;106157;1292;59105;-82
2023/03/05 03:00:28;;;;;;;54.20;20.10;;;;;;;1.20;100.00;99929.17;106502;1286;59467;-82
2023/03/05 03:02:54;;;;;;;50.80;18.50;;;;;;;1.16;100.00;99927.35;106706;1286;59511;-82
2023/03/05 03:05:19;;;;;;;47.50;18.50;;;;;;;1.12;100.00;99930.89;106530;1286;60701;-82
2023/03/05 03:07:45;;;;;;;50.70;20.30;;;;;;;1.08;100.00;99935.12;106725;1286;59166;-82
2023/03/05 03:10:11;;;;;;;49.50;19.20;;;;;;;1.05;100.00;99936.60;106754;1286;59022;-82
2023/03/05 03:12:38;;;;;;;48.40;18.80;;;;;;;1.03;100.00;99928.95;106672;1286;59166;-82
2023/03/05 03:15:05;;;;;;;48.90;18.40;;;;;;;1.00;100.00;99928.84;106851;1286;59040;-82
2023/03/05 03:17:30;;;;;;;46.40;18.90;;;;;;;0.96;100.00;99927.20;106936;1284;59008;-83
2023/03/05 03:19:56;;;;;;;44.60;17.90;;;;;;;0.90;100.00;99925.23;106936;1284;59063;-82
2023/03/05 03:22:21;;;;;;;45.10;17.60;;;;;;;0.87;100.00;99929.89;106946;1285;59050;-81
2023/03/05 03:24:47;;;;;;;45.80;18.40;;;;;;;0.84;100.00;99931.27;106987;1285;59145;-82
2023/03/05 03:27:13;;;;;;;48.70;19.40;;;;;;;0.81;100.00;99932.70;106951;1285;59024;-82
2023/03/05 03:29:38;;;;;;;40.70;17.00;;;;;;;0.79;100.00;99933.33;106955;1286;59030;-81
2023/03/05 03:32:04;;;;;;;50.40;18.80;;;;;;;0.77;100.00;99935.38;106991;1284;59490;-82
2023/03/05 03:34:29;;;;;;;42.80;18.10;;;;;;;0.74;100.00;99932.13;106965;1286;59138;-82
2023/03/05 03:36:55;;;;;;;43.90;17.50;;;;;;;0.73;100.00;99939.04;106749;1284;59082;-82
2023/03/05 03:39:21;;;;;;;49.10;18.50;;;;;;;0.69;100.00;99939.98;106950;1288;59993;-82
2023/03/05 03:41:49;;;;;;;45.00;17.80;;;;;;;0.65;100.00;99943.51;107002;1286;59124;-82
2023/03/05 03:44:17;;;;;;;43.10;17.70;;;;;;;0.62;100.00;99944.63;106827;1284;72456;-82
2023/03/05 03:46:45;;;;;;;45.40;18.50;;;;;;;0.58;100.00;99946.71;106951;1285;71748;-82
2023/03/05 03:49:16;;;;;;;46.00;17.50;;;;;;;0.54;100.00;99942.98;106467;1286;61707;-83
2023/03/05 03:51:41;;;;;;;46.50;18.70;;;;;;;0.46;100.00;99937.02;106950;1286;60953;-82
2023/03/05 03:54:07;;;;;;;49.10;19.10;;;;;;;0.44;100.00;99941.10;106609;1286;59231;-83
2023/03/05 03:56:32;;;;;;;40.70;16.90;;;;;;;0.41;100.00;99936.83;106959;1285;59108;-82
2023/03/05 03:58:58;;;;;;;46.90;18.60;;;;;;;0.38;100.00;99945.37;106954;1285;59022;-82
2023/03/05 04:01:23;;;;;;;47.90;18.90;;;;;;;0.34;100.00;99943.75;106962;1286;59233;-82
2023/03/05 04:03:49;;;;;;;49.70;18.40;;;;;;;0.31;100.00;99945.31;106976;1286;59750;-82
2023/03/05 04:06:14;;;;;;;46.40;18.60;;;;;;;0.26;100.00;99943.13;106980;1288;59543;-82
2023/03/05 04:08:40;;;;;;;43.50;18.10;;;;;;;0.23;100.00;99947.01;106963;1284;59097;-82
2023/03/05 04:14:27;;;;;;;46.30;18.20;;;;;;;0.19;100.00;99956.55;106993;1285;59991;-82
2023/03/05 04:16:52;;;;;;;47.30;18.80;;;;;;;0.18;100.00;99962.13;106959;1285;59130;-83
2023/03/05 04:19:21;;;;;;;45.00;19.80;;;;;;;0.16;100.00;99969.85;106979;1285;59035;-83
2023/03/05 04:21:46;;;;;;;48.70;18.70;;;;;;;0.15;100.00;99968.91;106812;1286;59518;-82
2023/03/05 04:24:12;;;;;;;46.80;17.80;;;;;;;0.15;100.00;99971.08;106835;1284;58999;-82
2023/03/05 04:26:37;;;;;;;46.30;19.00;;;;;;;0.14;100.00;99967.73;106822;1286;59085;-82
2023/03/05 04:29:03;;;;;;;49.50;18.40;;;;;;;0.16;100.00;99977.39;106987;1286;59208;-82
2023/03/05 04:31:31;;;;;;;51.00;19.80;;;;;;;0.19;100.00;99978.36;107021;1286;59442;-82
2023/03/05 04:33:58;;;;;;;50.00;19.50;;;;;;;0.21;100.00;99984.80;106467;1286;60543;-82
2023/03/05 04:36:23;;;;;;;50.60;18.90;;;;;;;0.23;100.00;99988.21;106959;1284;61096;-82
2023/03/05 04:38:49;;;;;;;47.10;18.10;;;;;;;0.27;100.00;99995.59;106483;1285;59353;-82
2023/03/05 04:41:14;;;;;;;44.50;16.40;;;;;;;0.32;100.00;99999.13;107017;1284;59076;-82
2023/03/05 04:43:40;;;;;;;47.60;18.70;;;;;;;0.37;100.00;99998.95;106949;1285;59055;-82
2023/03/05 04:46:05;;;;;;;50.30;18.90;;;;;;;0.43;100.00;99999.02;107028;1284;58965;-83
2023/03/05 04:48:31;;;;;;;47.30;18.50;;;;;;;0.51;100.00;100008.25;107018;1285;59171;-81
2023/03/05 04:50:56;;;;;;;48.30;18.60;;;;;;;0.60;100.00;100005.86;106881;1286;59098;-82
2023/03/05 04:53:22;;;;;;;48.40;18.20;;;;;;;0.69;100.00;100005.98;106573;1284;59214;-83
2023/03/05 04:55:53;;;;;;;45.20;17.70;;;;;;;0.89;100.00;100017.98;106977;1285;59077;-82
2023/03/05 04:58:18;;;;;;;50.30;18.90;;;;;;;1.02;100.00;100023.40;106965;1285;59987;-82
2023/03/05 05:00:44;;;;;;;46.60;17.80;;;;;;;1.10;100.00;100027.60;106653;1285;59133;-83
2023/03/05 05:03:09;;;;;;;46.40;18.00;;;;;;;1.24;100.00;100029.05;106991;1285;59322;-83
2023/03/05 05:05:35;;;;;;;47.20;16.00;;;;;;;1.83;100.00;100024.40;106507;1287;59181;-83
2023/03/05 05:08:00;;;;;;;43.80;16.00;;;;;;;3.08;100.00;100030.73;106637;1288;59748;-84
2023/03/05 05:10:26;;;;;;;47.00;16.30;;;;;;;4.41;100.00;100031.52;106594;1286;74615;-84
2023/03/05 05:12:52;;;;;;;41.80;16.00;;;;;;;5.47;100.00;100034.84;106608;1289;59121;-84
2023/03/05 05:15:18;;;;;;;43.10;16.80;;;;;;;6.52;100.00;100035.80;106532;1288;59534;-84
2023/03/05 05:17:43;;;;;;;41.60;16.20;;;;;;;7.40;100.00;100036.77;106576;1287;58978;-84
2023/03/05 05:20:11;;;;;;;38.60;16.40;;;;;;;8.12;100.00;100037.92;106378;1289;59073;-84
2023/03/05 05:22:37;;;;;;;42.30;16.10;;;;;;;8.97;96.81;100038.88;106618;1289;59032;-84
2023/03/05 05:25:03;;;;;;;34.60;15.10;;;;;;;9.86;91.35;100035.90;106594;1287;59246;-85
2023/03/05 05:27:29;;;;;;;35.30;14.70;;;;;;;10.40;77.37;100043.81;106578;1288;59181;-85
2023/03/05 05:29:55;;;;;;;37.00;16.60;;;;;;;10.99;76.19;100045.91;106255;1287;59232;-85
2023/03/05 05:32:24;;;;;;;36.50;15.50;;;;;;;11.51;72.38;100048.42;106623;1288;59101;-85
2023/03/05 05:35:08;;;;;;;39.60;16.50;;;;;;;12.13;68.53;100052.79;106547;1288;74094;-85
2023/03/05 05:37:34;;;;;;;34.80;16.10;;;;;;;12.86;64.06;100047.04;106588;1284;73671;-85
2023/03/05 05:39:59;;;;;;;34.20;15.90;;;;;;;13.31;60.28;100050.98;106940;1285;59909;-85
2023/03/05 05:42:28;;;;;;;29.40;14.60;;;;;;;13.90;57.04;100047.87;106640;1284;59108;-85
2023/03/05 05:44:56;;;;;;;34.30;15.20;;;;;;;14.44;56.01;100053.67;106641;1288;59154;-86
2023/03/05 05:47:22;;;;;;;30.50;14.40;;;;;;;14.81;51.99;100056.43;106335;1288;74282;-86
2023/03/05 05:49:50;;;;;;;29.70;14.90;;;;;;;14.86;48.06;100057.19;106365;1287;59289;-85
2023/03/05 05:52:19;;;;;;;33.50;15.80;;;;;;;14.96;48.04;100058.14;106298;1289;60717;-85
2023/03/05 05:54:47;;;;;;;29.90;14.70;;;;;;;15.50;46.70;100064.23;106236;1290;61080;-85
2023/03/05 05:57:13;;;;;;;31.60;15.60;;;;;;;15.79;45.86;100062.77;105923;1295;75557;-86
2023/03/05 05:59:42;;;;;;;30.10;14.70;;;;;;;16.01;45.82;100065.77;105974;1294;59126;-83
2023/03/05 06:02:07;;;;;;;27.00;13.40;;;;;;;16.33;44.99;100069.41;105874;1295;73320;-83
2023/03/05 06:04:36;;;;;;;30.10;13.80;;;;;;;16.21;43.23;100072.74;106077;1294;59149;-83
2023/03/05 06:07:02;;;;;;;30.80;14.00;;;;;;;15.98;43.27;100072.76;105943;1294;60244;-83
2023/03/05 06:09:28;;;;;;;28.10;13.60;;;;;;;16.76;43.87;100077.88;105994;1294;59138;-83
2023/03/05 06:11:54;;;;;;;21.20;10.70;;;;;;;17.08;40.39;100078.48;106066;1294;59210;-87
2023/03/05 06:14:19;;;;;;;23.70;10.70;;;;;;;16.67;39.18;100084.23;106021;1294;59102;-83
2023/03/05 06:16:45;;;;;;;21.50;10.50;;;;;;;15.71;40.30;100087.11;106161;1291;59238;-82
2023/03/05 06:19:12;;;;;;;19.40;10.30;;;;;;;14.91;41.32;100089.26;106207;1292;59072;-82
2023/03/05 06:21:38;;;;;;;21.10;10.10;;;;;;;13.69;41.92;100100.27;106185;1291;74278;-83
2023/03/05 06:24:04;;;;;;;22.00;10.30;;;;;;;13.20;42.69;100102.45;106078;1291;59222;-84
2023/03/05 06:26:29;;;;;;;22.00;9.70;;;;;;;13.47;44.18;100108.02;106071;1292;59098;-84
2023/03/05 06:28:56;;;;;;;20.60;9.30;;;;;;;13.66;41.21;100108.24;106061;1293;59071;-83
2023/03/05 06:31:26;;;;;;;19.50;9.20;;;;;;;12.97;43.07;100110.03;106515;1288;59267;-84
2023/03/05 06:33:55;;;;;;;19.30;9.00;;;;;;;13.64;42.86;100111.89;106394;1288;73477;-85
2023/03/05 06:36:23;;;;;;;14.70;7.50;;;;;;;14.63;41.84;100107.88;106315;1288;72968;-85
2023/03/05 06:38:50;;;;;;;13.30;6.60;;;;;;;15.35;39.72;100113.89;106379;1288;60063;-84
2023/03/05 06:41:19;;;;;;;11.70;5.30;;;;;;;14.35;38.32;100121.05;106383;1289;60051;-85
2023/03/05 06:43:46;;;;;;;13.30;6.00;;;;;;;14.27;39.28;100123.40;106487;1288;75397;-84
2023/03/05 06:46:20;;;;;;;8.80;4.80;;;;;;;15.68;38.69;100123.73;106440;1288;74365;-85
2023/03/05 06:48:47;;;;;;;6.20;4.00;;;;;;;16.41;35.83;100118.31;106459;1288;72312;-86
2023/03/05 06:51:16;;;;;;;9.10;4.30;;;;;;;16.97;35.40;100121.77;106355;1289;60002;-87
2023/03/05 06:53:43;;;;;;;4.80;2.70;;;;;;;17.96;34.10;100120.73;106501;1288;59828;-86
2023/03/05 06:56:09;;;;;;;3.60;2.60;;;;;;;18.59;33.00;100122.73;106494;1288;59327;-86
2023/03/05 06:58:34;;;;;;;4.20;2.00;;;;;;;18.95;31.37;100124.85;106513;1288;59015;-86
2023/03/05 07:01:00;;;;;;;9.70;2.50;;;;;;;19.20;31.01;100125.22;106640;1286;59358;-86
2023/03/05 07:03:26;;;;;;;5.20;2.30;;;;;;;19.49;29.60;100131.13;106572;1284;59075;-86
2023/03/05 07:05:51;;;;;;;3.20;1.60;;;;;;;19.89;30.43;100131.21;106871;1285;59088;-88
2023/03/05 07:08:17;;;;;;;3.30;2.00;;;;;;;20.23;28.17;100133.92;106701;1284;59294;-87
2023/03/05 07:10:43;;;;;;;3.00;1.60;;;;;;;20.20;27.73;100135.95;106984;1285;70428;-88
2023/03/05 07:13:09;;;;;;;2.50;1.90;;;;;;;20.58;27.35;100134.63;106823;1284;59286;-86
2023/03/05 07:15:40;;;;;;;2.70;1.30;;;;;;;20.92;27.26;100141.12;106839;1285;59117;-86
2023/03/05 07:21:29;;;;;;;3.70;1.60;;;;;;;21.46;26.26;100142.67;106954;1285;73270;-87
2023/03/05 07:23:57;;;;;;;1.70;1.50;;;;;;;21.70;26.23;100145.59;106960;1284;73458;-86
2023/03/05 07:26:24;;;;;;;2.70;1.70;;;;;;;21.82;24.97;100144.76;106586;1287;59139;-85
2023/03/05 07:28:50;;;;;;;1.60;1.50;;;;;;;22.21;25.56;100146.23;106547;1288;59000;-86
2023/03/05 07:31:18;;;;;;;1.80;1.50;;;;;;;22.39;24.60;100139.51;106629;1287;59121;-86
2023/03/05 07:33:44;;;;;;;2.70;1.80;;;;;;;22.63;24.52;100147.05;106583;1287;74309;-87
2023/03/05 07:36:11;;;;;;;2.60;1.80;;;;;;;21.79;23.51;100144.36;106155;1288;59250;-87
2023/03/05 07:38:37;;;;;;;2.20;1.50;;;;;;;21.97;24.66;100150.44;106370;1287;60066;-88
2023/03/05 07:41:08;;;;;;;2.80;1.60;;;;;;;22.09;23.41;100154.96;106619;1287;59284;-86
2023/03/05 07:43:34;;;;;;;3.00;1.70;;;;;;;22.18;23.04;100150.13;106516;1288;75220;-89
2023/03/05 07:46:03;;;;;;;4.10;1.60;;;;;;;22.36;23.35;100151.67;106379;1287;59051;-88
2023/03/05 07:48:28;;;;;;;3.60;1.40;;;;;;;23.02;23.50;100147.38;106574;1287;73280;-88
2023/03/05 07:51:09;;;;;;;2.50;1.50;;;;;;;23.65;22.91;100143.84;106472;1287;59047;-90
2023/03/05 07:53:35;;;;;;;1.50;1.40;;;;;;;23.24;22.57;100145.94;106230;1288;59050;-88
2023/03/05 07:56:00;;;;;;;5.90;1.80;;;;;;;23.36;22.42;100143.10;106601;1288;59111;-87
2023/03/05 07:58:26;;;;;;;4.70;1.70;;;;;;;23.30;21.81;100139.17;106692;1285;59890;-88
2023/03/05 08:00:51;;;;;;;1.60;1.40;;;;;;;23.67;22.20;100139.48;106698;1286;59283;-88
2023/03/05 08:03:17;;;;;;;2.80;1.60;;;;;;;24.10;21.53;100135.67;106934;1284;59592;-87
2023/03/05 08:05:43;;;;;;;1.60;1.30;;;;;;;24.31;21.42;100136.90;106861;1285;75541;-88
2023/03/05 08:08:09;;;;;;;2.50;1.40;;;;;;;24.68;21.28;100145.70;106786;1285;59392;-88
2023/03/05 08:10:36;;;;;;;1.60;1.50;;;;;;;25.01;20.88;100146.50;106844;1285;59396;-88
2023/03/05 08:13:02;;;;;;;4.40;1.60;;;;;;;25.12;20.61;100146.79;106759;1285;59256;-87
2023/03/05 08:15:28;;;;;;;2.20;2.00;;;;;;;25.18;20.76;100147.37;106860;1285;58924;-87
2023/03/05 08:17:54;;;;;;;4.20;1.50;;;;;;;25.54;20.00;100146.02;106725;1286;59010;-86
2023/03/05 08:20:20;;;;;;;2.00;1.70;;;;;;;25.48;18.91;100143.48;106898;1285;59071;-88
2023/03/05 08:22:45;;;;;;;2.20;1.90;;;;;;;25.04;19.15;100145.00;106502;1286;59108;-87
2023/03/05 08:25:12;;;;;;;1.80;1.40;;;;;;;24.34;19.68;100144.98;106793;1285;59686;-86
2023/03/05 08:27:39;;;;;;;2.90;1.50;;;;;;;23.97;20.27;100143.84;106719;1286;74499;-85
2023/03/05 08:30:06;;;;;;;2.10;1.50;;;;;;;24.76;20.48;100148.05;106499;1288;72739;-87
2023/03/05 08:32:32;;;;;;;2.70;1.50;;;;;;;25.11;19.00;100149.66;106274;1288;73463;-89
2023/03/05 08:34:57;;;;;;;3.60;1.50;;;;;;;24.12;18.67;100149.95;106508;1288;59036;-88
2023/03/05 08:37:24;;;;;;;3.30;1.70;;;;;;;23.65;20.09;100151.46;106344;1288;59171;-88
2023/03/05 08:39:49;;;;;;;1.60;1.50;;;;;;;23.76;19.92;100152.60;106369;1288;59022;-90
2023/03/05 08:42:15;;;;;;;4.80;1.90;;;;;;;23.81;20.32;100152.14;106583;1288;59132;-89
2023/03/05 08:44:40;;;;;;;5.20;1.80;;;;;;;23.72;19.77;100165.45;106326;1287;59690;-89
2023/03/05 08:47:06;;;;;;;2.90;1.80;;;;;;;23.42;20.30;100161.86;106274;1290;60210;-89
2023/03/05 08:49:31;;;;;;;5.10;1.80;;;;;;;23.14;20.66;100167.00;106276;1291;59175;-88
2023/03/05 08:51:57;;;;;;;2.40;1.80;;;;;;;23.60;20.78;100165.58;106174;1291;59180;-89
2023/03/05 08:54:22;;;;;;;3.50;1.90;;;;;;;23.88;20.22;100170.92;106226;1291;59455;-88
2023/03/05 08:56:48;;;;;;;4.60;2.00;;;;;;;23.89;20.19;100166.86;106292;1291;59090;-89
2023/03/05 08:59:14;;;;;;;2.20;1.70;;;;;;;23.50;19.96;100165.17;106267;1290;75332;-89
2023/03/05 09:01:40;;;;;;;2.70;1.60;;;;;;;22.91;20.55;100174.11;106319;1288;59001;-88
2023/03/05 09:04:05;;;;;;;2.00;1.60;;;;;;;22.99;20.59;100172.98;106387;1289;59226;-89
2023/03/05 09:06:33;;;;;;;8.60;2.10;;;;;;;22.79;20.62;100180.13;106618;1287;59315;-86
2023/03/05 09:08:58;;;;;;;4.30;1.90;;;;;;;22.42;20.41;100178.71;106616;1288;59207;-86
2023/03/05 09:11:24;;;;;;;2.00;1.30;;;;;;;21.66;19.85;100185.80;106609;1287;59227;-87
2023/03/05 09:13:50;;;;;;;2.90;1.60;;;;;;;20.68;19.49;100194.64;106618;1287;59191;-86
2023/03/05 09:16:17;;;;;;;4.60;1.20;;;;;;;19.69;20.34;100193.73;106418;1288;59410;-87
2023/03/05 09:18:43;;;;;;;2.10;1.30;;;;;;;19.13;20.64;100194.08;106372;1288;59509;-86
2023/03/05 09:21:15;;;;;;;4.20;1.80;;;;;;;18.60;21.07;100193.63;106498;1288;59088;-86
2023/03/05 09:23:43;;;;;;;1.70;1.30;;;;;;;18.32;21.81;100194.50;106511;1288;73548;-85
2023/03/05 09:26:14;;;;;;;3.60;1.80;;;;;;;18.02;22.06;100198.81;106398;1289;73533;-87
2023/03/05 09:28:40;;;;;;;3.70;1.60;;;;;;;17.25;22.85;100188.09;106319;1289;61026;-85
2023/03/05 09:31:07;;;;;;;2.70;1.40;;;;;;;16.65;23.31;100194.58;106545;1288;59236;-85
2023/03/05 09:33:34;;;;;;;3.90;2.00;;;;;;;15.98;24.05;100191.53;106424;1288;59221;-85
2023/03/05 09:36:00;;;;;;;7.00;2.20;;;;;;;15.52;24.97;100188.23;106502;1288;74411;-84
2023/03/05 09:38:26;;;;;;;6.60;2.50;;;;;;;15.07;25.78;100190.56;106286;1288;59134;-84
2023/03/05 09:40:54;;;;;;;3.30;1.70;;;;;;;14.75;25.78;100192.80;106433;1288;59110;-84
2023/03/05 09:43:32;;;;;;;3.30;1.10;;;;;;;13.78;26.34;100195.35;106494;1288;60071;-84
2023/03/05 09:46:26;;;;;;;4.70;1.00;;;;;;;12.97;27.13;100186.20;106501;1288;75483;-84
2023/03/05 09:49:01;;;;;;;5.80;1.20;;;;;;;12.25;28.24;100188.64;106110;1292;73746;-84
2023/03/05 09:51:33;;;;;;;3.00;1.00;;;;;;;11.85;28.10;100190.30;106115;1292;73232;-84
2023/03/05 09:54:09;;;;;;;1.60;0.80;;;;;;;11.37;28.34;100192.27;106113;1292;60230;-84
2023/03/05 09:56:39;;;;;;;2.40;0.90;;;;;;;10.77;28.33;100193.96;106207;1291;59072;-84
2023/03/05 09:59:11;;;;;;;4.50;1.50;;;;;;;10.32;30.03;100193.25;106229;1291;75363;-86
2023/03/05 10:01:41;;;;;;;3.70;1.20;;;;;;;9.97;30.69;100191.44;106264;1291;74339;-84
2023/03/05 10:04:17;;;;;;;1.50;0.90;;;;;;;9.41;31.95;100189.02;106195;1291;72355;-83
2023/03/05 10:06:51;;;;;;;3.40;1.00;;;;;;;9.24;32.33;100185.40;106073;1291;60339;-84
2023/03/05 10:10:00;;;;;;;1.20;0.70;;;;;;;9.10;32.19;100188.49;106214;1291;61019;-83
2023/03/05 10:12:41;;;;;;;2.90;0.90;;;;;;;8.66;32.72;100188.30;106181;1290;74523;-85
2023/03/05 10:15:37;;;;;;;3.50;0.70;;;;;;;8.44;32.61;100181.78;106269;1290;73342;-85
2023/03/05 10:18:26;;;;;;;3.30;0.80;;;;;;;8.20;32.19;100183.26;106156;1292;73296;-83
2023/03/05 10:20:57;;;;;;;3.60;0.60;;;;;;;7.87;32.58;100188.40;106261;1290;59571;-83
2023/03/05 10:23:32;;;;;;;4.40;1.00;;;;;;;7.78;32.45;100190.70;106304;1290;61302;-83
2023/03/05 10:26:19;;;;;;;2.60;1.00;;;;;;;7.44;33.66;100189.77;106705;1285;75487;-82
2023/03/05 10:28:56;;;;;;;3.50;1.00;;;;;;;7.21;34.77;100186.20;106942;1284;74276;-82
2023/03/05 10:31:40;;;;;;;2.50;0.90;;;;;;;7.17;34.75;100188.56;106713;1285;72791;-82
2023/03/05 10:34:11;;;;;;;1.70;0.50;;;;;;;7.11;35.00;100186.93;106790;1285;59518;-82
2023/03/05 10:37:13;;;;;;;1.80;1.00;;;;;;;6.97;35.41;100186.84;106947;1284;60245;-84
2023/03/05 10:39:42;;;;;;;2.60;0.80;;;;;;;6.69;35.97;100183.63;106323;1291;75287;-83
2023/03/05 10:42:25;;;;;;;1.00;0.60;;;;;;;6.50;36.37;100184.34;106290;1290;72978;-82
2023/03/05 10:45:08;;;;;;;3.70;0.90;;;;;;;6.41;36.69;100181.94;106276;1291;72299;-85
2023/03/05 10:47:36;;;;;;;2.30;0.70;;;;;;;6.48;36.47;100182.42;106315;1290;60386;-83
2023/03/05 10:50:15;;;;;;;2.50;0.70;;;;;;;6.56;35.91;100180.05;106273;1291;59918;-82
2023/03/05 10:52:45;;;;;;;2.10;1.00;;;;;;;6.48;36.11;100180.36;106249;1290;74486;-82
2023/03/05 10:55:16;;;;;;;2.10;0.70;;;;;;;6.42;36.02;100179.44;106307;1290;74410;-83
2023/03/05 10:57:42;;;;;;;4.00;0.80;;;;;;;6.32;36.45;100180.45;106310;1290;73422;-83
2023/03/05 11:00:19;;;;;;;3.90;0.80;;;;;;;6.24;37.03;100178.50;106094;1291;59446;-83
2023/03/05 11:03:09;;;;;;;2.90;1.00;;;;;;;6.30;36.93;100178.66;106096;1290;60465;-84
2023/03/05 11:05:38;;;;;;;2.00;0.80;;;;;;;6.32;37.36;100180.45;106306;1290;75386;-84
2023/03/05 11:08:35;;;;;;;3.80;0.80;;;;;;;6.30;37.64;100173.52;106294;1290;73407;-85
2023/03/05 11:11:04;;;;;;;2.20;0.80;;;;;;;6.20;38.22;100175.00;106008;1293;72556;-85
2023/03/05 11:13:31;;;;;;;1.70;0.80;;;;;;;6.20;38.19;100174.67;106157;1292;59506;-84
2023/03/05 11:16:03;;;;;;;3.00;0.70;;;;;;;6.27;38.33;100173.30;106321;1290;60029;-86
2023/03/05 11:18:33;;;;;;;2.30;0.70;;;;;;;6.26;38.29;100173.24;106975;1284;75349;-86
2023/03/05 11:21:20;;;;;;;2.10;0.80;;;;;;;6.25;38.29;100171.67;106859;1285;74461;-85
2023/03/05 11:24:09;;;;;;;1.10;0.60;;;;;;;6.35;37.73;100169.58;106927;1285;72696;-86